createdAt,value
2022-12-12T00:02:51.251Z,-1.00
2022-12-12T00:07:53.594Z,-0.90
2022-12-12T00:12:55.956Z,-0.90
2022-12-12T00:17:58.269Z,-0.90
2022-12-12T00:23:00.569Z,-1.00
2022-12-12T00:28:02.876Z,-1.00
2022-12-12T00:33:05.090Z,-1.00
2022-12-12T00:38:07.357Z,-0.90
2022-12-12T00:43:09.641Z,-0.90
2022-12-12T00:48:12.457Z,-0.80
2022-12-12T00:53:14.748Z,-0.80
2022-12-12T00:58:17.011Z,-0.70
2022-12-12T01:03:19.906Z,-0.70
2022-12-12T01:08:22.527Z,-0.60
2022-12-12T01:13:25.024Z,-0.60
2022-12-12T01:18:28.134Z,-0.50
2022-12-12T01:23:30.364Z,-0.50
2022-12-12T01:28:33.323Z,-0.50
2022-12-12T01:33:35.870Z,-0.40
2022-12-12T01:38:38.085Z,-0.40
2022-12-12T01:43:40.668Z,-0.30
2022-12-12T01:48:49.286Z,-0.40
2022-12-12T01:53:57.081Z,-0.30
2022-12-12T01:59:00.587Z,-0.30
2022-12-12T02:04:03.706Z,-0.20
2022-12-12T02:09:09.760Z,-0.20
2022-12-12T02:14:15.576Z,-0.10
2022-12-12T02:19:46.696Z,-0.10
2022-12-12T02:25:04.950Z,-0.10
2022-12-12T02:30:16.497Z,0.00
2022-12-12T02:35:51.738Z,0.00
2022-12-12T02:41:12.514Z,0.10
2022-12-12T02:46:19.987Z,0.10
2022-12-12T02:51:23.321Z,0.20
2022-12-12T02:56:55.186Z,0.20
2022-12-12T03:02:12.377Z,0.10
2022-12-12T03:07:46.783Z,0.10
2022-12-12T03:13:22.871Z,0.00
2022-12-12T03:18:33.022Z,0.00
2022-12-12T03:23:39.931Z,0.10
2022-12-12T03:28:54.309Z,0.10
2022-12-12T03:34:04.712Z,0.10
2022-12-12T03:39:18.518Z,0.20
2022-12-12T03:44:26.257Z,0.10
2022-12-12T03:49:48.205Z,0.20
2022-12-12T03:54:59.629Z,0.30
2022-12-12T04:00:08.410Z,0.30
2022-12-12T04:06:05.540Z,0.20
2022-12-12T04:11:35.391Z,0.30
2022-12-12T04:16:42.589Z,0.40
2022-12-12T04:22:18.052Z,0.40
2022-12-12T04:27:30.650Z,0.50
2022-12-12T04:32:58.138Z,0.50
2022-12-12T04:38:05.542Z,0.60
2022-12-12T04:43:18.706Z,0.60
2022-12-12T04:48:27.839Z,0.60
2022-12-12T04:53:35.497Z,0.50
2022-12-12T04:58:41.448Z,0.50
2022-12-12T05:03:58.046Z,0.50
2022-12-12T05:09:02.585Z,0.50
2022-12-12T05:14:10.957Z,0.50
2022-12-12T05:19:13.230Z,0.50
2022-12-12T05:24:15.452Z,0.60
2022-12-12T05:29:17.696Z,0.60
2022-12-12T05:34:19.960Z,0.70
2022-12-12T05:39:22.277Z,0.70
2022-12-12T05:44:24.536Z,0.70
2022-12-12T05:49:26.795Z,0.70
2022-12-12T05:54:29.138Z,0.70
2022-12-12T05:59:31.690Z,0.70
2022-12-12T06:04:34.904Z,0.70
2022-12-12T06:09:37.114Z,0.70
2022-12-12T06:14:39.437Z,0.70
2022-12-12T06:19:42.249Z,0.70
2022-12-12T06:24:44.826Z,0.70
2022-12-12T06:29:47.130Z,0.80
2022-12-12T06:34:49.671Z,0.80
2022-12-12T06:39:52.002Z,0.80
2022-12-12T06:44:54.283Z,0.80
2022-12-12T06:49:56.486Z,0.90
2022-12-12T06:54:58.757Z,0.90
2022-12-12T07:00:01.670Z,0.80
2022-12-12T07:05:04.074Z,0.80
2022-12-12T07:10:06.937Z,0.90
2022-12-12T07:15:09.760Z,0.90
2022-12-12T07:20:12.534Z,0.80
2022-12-12T07:25:15.285Z,0.80
2022-12-12T07:30:18.115Z,0.90
2022-12-12T07:35:20.362Z,1.00
2022-12-12T07:40:23.341Z,1.00
2022-12-12T07:45:25.968Z,1.00
2022-12-12T07:50:28.291Z,1.10
2022-12-12T07:55:30.693Z,1.10
2022-12-12T08:00:33.594Z,1.10
2022-12-12T08:05:39.284Z,1.20
2022-12-12T08:10:41.871Z,1.20
2022-12-12T08:15:44.607Z,1.20
2022-12-12T08:20:46.875Z,1.30
2022-12-12T08:25:49.286Z,1.50
2022-12-12T08:30:51.879Z,1.40
2022-12-12T08:35:54.338Z,1.50
2022-12-12T08:40:56.563Z,1.40
2022-12-12T08:46:02.944Z,1.50
2022-12-12T08:51:05.416Z,1.50
2022-12-12T08:56:07.920Z,1.40
2022-12-12T09:01:11.984Z,1.50
2022-12-12T09:06:15.478Z,1.50
2022-12-12T09:11:18.641Z,1.50
2022-12-12T09:16:22.217Z,1.50
2022-12-12T09:21:24.502Z,1.40
2022-12-12T09:26:26.720Z,1.40
2022-12-12T09:31:29.027Z,1.50
2022-12-12T09:36:31.353Z,1.60
2022-12-12T09:41:34.723Z,1.60
2022-12-12T09:46:42.428Z,1.80
2022-12-12T09:51:48.179Z,1.80
2022-12-12T09:57:09.059Z,1.90
2022-12-12T10:02:29.614Z,1.80
2022-12-12T10:07:54.982Z,1.90
2022-12-12T10:12:59.509Z,1.90
2022-12-12T10:18:13.185Z,2.00
2022-12-12T10:23:41.101Z,2.10
2022-12-12T10:28:44.389Z,2.30
2022-12-12T10:34:19.803Z,2.40
2022-12-12T10:39:24.873Z,2.30
2022-12-12T10:45:02.415Z,2.50
2022-12-12T10:50:13.409Z,2.60
2022-12-12T10:55:22.557Z,2.60
2022-12-12T11:00:29.690Z,2.60
2022-12-12T11:05:36.524Z,2.60
2022-12-12T11:10:38.836Z,2.50
2022-12-12T11:15:52.106Z,2.60
2022-12-12T11:21:03.707Z,2.50
2022-12-12T11:26:18.850Z,2.50
2022-12-12T11:31:24.502Z,2.80
2022-12-12T11:36:41.424Z,3.00
2022-12-12T11:42:12.633Z,3.10
2022-12-12T11:47:41.586Z,3.40
2022-12-12T11:52:43.998Z,3.60
2022-12-12T11:58:16.242Z,3.90
2022-12-12T12:03:39.479Z,3.80
2022-12-12T12:09:11.252Z,3.80
2022-12-12T12:14:51.027Z,3.60
2022-12-12T12:20:08.608Z,3.50
2022-12-12T12:25:30.534Z,3.50
2022-12-12T12:31:04.854Z,3.40
2022-12-12T12:36:21.184Z,3.40
2022-12-12T12:41:41.662Z,3.10
2022-12-12T12:47:20.232Z,3.10
2022-12-12T12:52:38.716Z,3.00
2022-12-12T12:57:52.242Z,2.90
2022-12-12T13:03:12.722Z,2.70
2022-12-12T13:08:32.474Z,2.50
2022-12-12T13:13:39.391Z,2.50
2022-12-12T13:18:45.442Z,2.30
2022-12-12T13:24:06.306Z,2.30
2022-12-12T13:29:42.570Z,2.20
2022-12-12T13:34:49.094Z,2.20
2022-12-12T13:40:06.336Z,2.00
2022-12-12T13:45:45.068Z,2.00
2022-12-12T13:50:47.327Z,2.00
2022-12-12T13:56:09.593Z,2.00
2022-12-12T14:01:40.506Z,2.00
2022-12-12T14:06:43.213Z,1.80
2022-12-12T14:11:45.774Z,1.70
2022-12-12T14:16:55.817Z,1.80
2022-12-12T14:21:58.155Z,1.80
2022-12-12T14:27:04.874Z,1.80
2022-12-12T14:32:13.652Z,1.80
2022-12-12T14:37:24.609Z,1.80
2022-12-12T14:43:19.435Z,1.70
2022-12-12T14:48:29.339Z,1.70
2022-12-12T14:53:45.594Z,1.70
2022-12-12T14:59:02.885Z,1.70
2022-12-12T15:04:25.669Z,1.70
2022-12-12T15:09:36.753Z,1.60
2022-12-12T15:14:51.870Z,1.60
2022-12-12T15:20:25.698Z,1.60
2022-12-12T15:25:31.606Z,1.60
2022-12-12T15:30:40.532Z,1.50
2022-12-12T15:35:50.519Z,1.50
2022-12-12T15:40:55.755Z,1.50
2022-12-12T15:46:13.751Z,1.40
2022-12-12T15:51:24.421Z,1.40
2022-12-12T15:56:29.299Z,1.30
2022-12-12T16:01:31.759Z,1.30
2022-12-12T16:06:35.106Z,1.30
2022-12-12T16:11:47.412Z,1.30
2022-12-12T16:17:03.255Z,1.30
2022-12-12T16:22:29.851Z,1.40
2022-12-12T16:27:32.088Z,1.20
2022-12-12T16:32:34.397Z,1.20
2022-12-12T16:37:36.622Z,1.20
2022-12-12T16:42:39.111Z,1.20
2022-12-12T16:47:41.397Z,1.10
2022-12-12T16:52:43.731Z,1.10
2022-12-12T16:57:46.305Z,1.10
2022-12-12T17:02:48.533Z,1.00
2022-12-12T17:07:52.398Z,1.00
2022-12-12T17:12:55.050Z,0.90
2022-12-12T17:17:57.722Z,0.90
2022-12-12T17:28:20.923Z,0.90
2022-12-12T17:33:23.276Z,0.70
2022-12-12T17:38:25.992Z,0.80
2022-12-12T17:43:28.428Z,0.80
2022-12-12T17:48:32.569Z,0.70
2022-12-12T17:53:38.219Z,0.60
2022-12-12T17:58:43.570Z,0.60
2022-12-12T18:03:46.552Z,0.60
2022-12-12T18:08:49.898Z,0.50
2022-12-12T18:13:53.907Z,0.60
2022-12-12T18:18:56.818Z,0.50
2022-12-12T18:23:59.134Z,0.50
2022-12-12T18:29:04.411Z,0.60
2022-12-12T18:34:06.907Z,0.50
2022-12-12T18:39:10.653Z,0.50
2022-12-12T18:44:14.634Z,0.60
2022-12-12T18:49:18.281Z,0.50
2022-12-12T18:54:20.702Z,0.50
2022-12-12T18:59:22.929Z,0.40
2022-12-12T19:04:25.158Z,0.50
2022-12-12T19:09:27.361Z,0.40
2022-12-12T19:14:45.931Z,0.40
2022-12-12T19:19:50.277Z,0.30
2022-12-12T19:24:52.493Z,0.30
2022-12-12T19:29:56.143Z,0.30
2022-12-12T19:34:59.648Z,0.20
2022-12-12T19:40:01.908Z,0.20
2022-12-12T19:45:04.851Z,0.20
2022-12-12T19:50:07.290Z,0.10
2022-12-12T19:55:09.749Z,0.20
2022-12-12T20:00:12.930Z,0.10
2022-12-12T20:05:15.432Z,0.10
2022-12-12T20:10:17.711Z,0.10
2022-12-12T20:15:20.021Z,0.20
2022-12-12T20:20:22.472Z,0.20
2022-12-12T20:25:25.317Z,0.10
2022-12-12T20:30:27.532Z,0.10
2022-12-12T20:35:29.761Z,0.00
2022-12-12T20:40:32.086Z,0.10
2022-12-12T20:45:36.480Z,0.20
2022-12-12T20:50:38.736Z,0.00
2022-12-12T20:55:41.025Z,-0.10
2022-12-12T21:00:43.252Z,0.00
2022-12-12T21:05:45.793Z,-0.10
2022-12-12T21:10:48.161Z,-0.20
2022-12-12T21:15:50.441Z,-0.20
2022-12-12T21:20:52.705Z,-0.10
2022-12-12T21:25:54.924Z,-0.10
2022-12-12T21:30:57.351Z,0.00
2022-12-12T21:36:07.407Z,-0.20
2022-12-12T21:41:12.609Z,-0.10
2022-12-12T21:46:20.855Z,-0.10
2022-12-12T21:51:23.119Z,-0.30
2022-12-12T21:56:25.454Z,-0.20
2022-12-12T22:01:27.996Z,-0.40
2022-12-12T22:06:32.899Z,-0.20
2022-12-12T22:11:41.469Z,-0.20
2022-12-12T22:16:52.370Z,-0.30
2022-12-12T22:21:54.620Z,-0.30
2022-12-12T22:26:56.904Z,-0.30
2022-12-12T22:31:59.153Z,-0.50
2022-12-12T22:37:02.698Z,-0.40
2022-12-12T22:42:05.098Z,-0.40
2022-12-12T22:47:07.353Z,-0.40
2022-12-12T22:52:09.655Z,-0.40
2022-12-12T22:57:11.931Z,-0.40
2022-12-12T23:02:14.274Z,-0.40
2022-12-12T23:07:17.113Z,-0.40
2022-12-12T23:12:23.269Z,-0.40
2022-12-12T23:17:25.552Z,-0.30
2022-12-12T23:22:28.113Z,-0.30
2022-12-12T23:27:30.376Z,-0.40
2022-12-12T23:32:32.794Z,-0.40
2022-12-12T23:37:35.199Z,-0.40
2022-12-12T23:42:37.405Z,-0.40
2022-12-12T23:47:40.026Z,-0.40
2022-12-12T23:52:42.334Z,-0.50
2022-12-12T23:57:44.777Z,-0.70
